createdAt,value
2022-12-22T00:00:41.913Z,80.43
2022-12-22T00:03:31.550Z,80.41
2022-12-22T00:06:16.953Z,79.94
2022-12-22T00:09:05.756Z,79.63
2022-12-22T00:11:52.224Z,79.97
2022-12-22T00:14:37.418Z,80.30
2022-12-22T00:17:34.523Z,80.29
2022-12-22T00:20:19.831Z,80.22
2022-12-22T00:23:05.440Z,79.81
2022-12-22T00:25:50.845Z,80.18
2022-12-22T00:28:36.407Z,80.03
2022-12-22T00:31:21.959Z,80.37
2022-12-22T00:34:09.262Z,80.79
2022-12-22T00:36:55.762Z,80.49
2022-12-22T00:39:41.120Z,80.48
2022-12-22T00:42:26.412Z,81.00
2022-12-22T00:45:12.202Z,80.05
2022-12-22T00:47:57.776Z,80.23
2022-12-22T00:50:50.917Z,80.85
2022-12-22T00:53:36.658Z,80.14
2022-12-22T00:56:23.452Z,80.43
2022-12-22T00:59:11.251Z,80.51
2022-12-22T01:01:56.875Z,80.98
2022-12-22T01:04:42.296Z,80.41
2022-12-22T01:07:31.494Z,80.50
2022-12-22T01:10:17.719Z,80.12
2022-12-22T01:13:04.684Z,80.45
2022-12-22T01:15:49.846Z,82.37
2022-12-22T01:18:36.066Z,83.65
2022-12-22T01:21:23.122Z,84.24
2022-12-22T01:24:10.278Z,84.83
2022-12-22T01:26:55.817Z,84.80
2022-12-22T01:29:41.277Z,85.25
2022-12-22T01:32:31.541Z,85.36
2022-12-22T01:35:17.095Z,86.15
2022-12-22T01:38:02.271Z,86.30
2022-12-22T01:40:49.398Z,86.75
2022-12-22T01:43:38.762Z,86.48
2022-12-22T01:46:43.055Z,86.52
2022-12-22T01:49:30.465Z,86.49
2022-12-22T01:52:16.689Z,86.71
2022-12-22T01:55:03.021Z,87.03
2022-12-22T01:57:51.928Z,87.07
2022-12-22T02:00:37.721Z,87.14
2022-12-22T02:03:33.149Z,87.59
2022-12-22T02:06:31.171Z,87.98
2022-12-22T02:09:36.609Z,88.04
2022-12-22T02:12:30.362Z,88.66
2022-12-22T02:15:26.278Z,88.77
2022-12-22T02:18:22.369Z,88.10
2022-12-22T02:21:12.287Z,87.97
2022-12-22T02:24:17.514Z,88.54
2022-12-22T02:27:09.291Z,88.25
2022-12-22T02:29:57.887Z,87.86
2022-12-22T02:32:44.209Z,88.14
2022-12-22T02:35:30.634Z,87.67
2022-12-22T02:38:23.630Z,87.87
2022-12-22T02:41:26.451Z,87.79
2022-12-22T02:44:30.166Z,87.44
2022-12-22T02:47:22.952Z,87.25
2022-12-22T02:50:13.482Z,86.71
2022-12-22T02:53:01.427Z,87.22
2022-12-22T02:55:48.153Z,86.46
2022-12-22T02:58:33.956Z,86.58
2022-12-22T03:01:23.141Z,86.34
2022-12-22T03:04:08.586Z,85.68
2022-12-22T03:06:54.133Z,85.84
2022-12-22T03:09:39.550Z,85.88
2022-12-22T03:12:25.579Z,86.09
2022-12-22T03:15:10.820Z,86.21
2022-12-22T03:17:58.643Z,86.19
2022-12-22T03:20:44.150Z,85.91
2022-12-22T03:23:29.668Z,86.76
2022-12-22T03:25:57.551Z,86.56
2022-12-22T03:28:28.589Z,86.34
2022-12-22T03:30:58.239Z,86.25
2022-12-22T03:33:28.078Z,86.44
2022-12-22T03:35:56.065Z,85.97
2022-12-22T03:38:25.011Z,86.59
2022-12-22T03:40:52.835Z,86.65
2022-12-22T03:43:38.748Z,86.28
2022-12-22T03:46:24.201Z,86.12
2022-12-22T03:49:12.304Z,85.23
2022-12-22T03:51:43.335Z,84.90
2022-12-22T03:54:13.097Z,85.31
2022-12-22T03:56:41.410Z,85.81
2022-12-22T03:59:09.793Z,85.55
2022-12-22T04:01:40.542Z,85.72
2022-12-22T04:04:10.676Z,85.68
2022-12-22T04:06:38.947Z,84.71
2022-12-22T04:09:07.104Z,84.54
2022-12-22T04:11:52.741Z,84.78
2022-12-22T04:14:21.276Z,83.99
2022-12-22T04:16:49.318Z,84.44
2022-12-22T04:19:18.969Z,84.64
2022-12-22T04:21:47.413Z,84.44
2022-12-22T04:24:15.681Z,84.88
2022-12-22T04:26:43.613Z,84.93
2022-12-22T04:29:11.915Z,84.74
2022-12-22T04:31:39.787Z,84.92
2022-12-22T04:34:07.935Z,84.14
2022-12-22T04:36:37.178Z,83.69
2022-12-22T04:39:05.438Z,83.80
2022-12-22T04:41:33.311Z,83.38
2022-12-22T04:44:01.456Z,84.04
2022-12-22T04:46:29.437Z,84.37
2022-12-22T04:49:00.281Z,84.18
2022-12-22T04:51:29.452Z,84.16
2022-12-22T04:53:58.699Z,84.06
2022-12-22T04:56:26.560Z,84.69
2022-12-22T04:58:54.837Z,84.67
2022-12-22T05:01:22.954Z,84.75
2022-12-22T05:03:50.976Z,85.50
2022-12-22T05:06:19.439Z,85.90
2022-12-22T05:08:47.509Z,86.48
2022-12-22T05:11:16.817Z,86.94
2022-12-22T05:13:44.747Z,86.54
2022-12-22T05:16:15.004Z,85.51
2022-12-22T05:18:45.151Z,85.27
2022-12-22T05:21:15.917Z,85.62
2022-12-22T05:23:44.594Z,85.23
2022-12-22T05:26:14.638Z,84.25
2022-12-22T05:28:45.040Z,84.86
2022-12-22T05:31:18.000Z,85.32
2022-12-22T05:33:46.030Z,84.55
2022-12-22T05:36:13.881Z,84.13
2022-12-22T05:38:41.827Z,84.06
2022-12-22T05:41:09.838Z,84.63
2022-12-22T05:43:38.547Z,84.04
2022-12-22T05:46:10.048Z,84.12
2022-12-22T05:48:39.781Z,83.38
2022-12-22T05:51:09.202Z,83.38
2022-12-22T05:53:37.817Z,84.09
2022-12-22T05:56:06.706Z,83.68
2022-12-22T05:58:34.999Z,83.75
2022-12-22T06:01:03.611Z,84.42
2022-12-22T06:03:32.953Z,83.79
2022-12-22T06:06:01.365Z,83.86
2022-12-22T06:08:29.944Z,83.82
2022-12-22T06:10:59.259Z,83.81
2022-12-22T06:13:27.619Z,83.72
2022-12-22T06:15:56.061Z,84.39
2022-12-22T06:18:24.114Z,83.60
2022-12-22T06:20:54.664Z,84.03
2022-12-22T06:23:23.868Z,83.84
2022-12-22T06:25:55.896Z,83.74
2022-12-22T06:28:23.985Z,83.64
2022-12-22T06:30:52.106Z,84.01
2022-12-22T06:33:20.110Z,83.99
2022-12-22T06:35:52.309Z,84.08
2022-12-22T06:38:27.474Z,83.55
2022-12-22T06:40:55.990Z,84.10
2022-12-22T06:43:22.819Z,83.83
2022-12-22T06:45:50.721Z,83.34
2022-12-22T06:48:18.749Z,83.52
2022-12-22T06:50:46.620Z,84.08
2022-12-22T06:53:15.005Z,83.97
2022-12-22T06:55:45.061Z,83.20
2022-12-22T06:58:13.156Z,82.42
2022-12-22T07:00:41.589Z,82.92
2022-12-22T07:03:09.749Z,82.79
2022-12-22T07:05:37.871Z,81.81
2022-12-22T07:08:09.032Z,82.13
2022-12-22T07:10:54.890Z,82.00
2022-12-22T07:13:25.044Z,81.52
2022-12-22T07:16:00.704Z,80.47
2022-12-22T07:18:31.153Z,80.33
2022-12-22T07:21:03.282Z,80.96
2022-12-22T07:23:32.402Z,79.24
2022-12-22T07:26:00.630Z,79.99
2022-12-22T07:28:30.172Z,79.26
2022-12-22T07:30:58.323Z,78.77
2022-12-22T07:33:26.319Z,79.59
2022-12-22T07:36:06.874Z,78.80
2022-12-22T07:38:36.667Z,78.46
2022-12-22T07:41:25.773Z,77.99
2022-12-22T07:43:54.875Z,78.60
2022-12-22T07:46:24.050Z,78.41
2022-12-22T07:49:09.547Z,78.33
2022-12-22T07:51:42.260Z,77.63
2022-12-22T07:54:11.555Z,78.11
2022-12-22T07:56:40.060Z,78.66
2022-12-22T07:59:10.264Z,78.49
2022-12-22T08:01:38.666Z,78.83
2022-12-22T08:04:06.921Z,78.49
2022-12-22T08:06:35.131Z,78.01
2022-12-22T08:09:03.157Z,77.71
2022-12-22T08:11:31.004Z,77.82
2022-12-22T08:14:01.976Z,78.23
2022-12-22T08:16:31.883Z,78.31
2022-12-22T08:19:00.364Z,79.01
2022-12-22T08:21:28.777Z,78.30
2022-12-22T08:23:57.238Z,79.07
2022-12-22T08:26:32.671Z,78.93
2022-12-22T08:29:08.742Z,78.52
2022-12-22T08:31:38.959Z,78.87
2022-12-22T08:34:10.362Z,78.90
2022-12-22T08:36:41.786Z,78.89
2022-12-22T08:39:12.390Z,79.14
2022-12-22T08:41:53.165Z,78.98
2022-12-22T08:44:23.177Z,79.25
2022-12-22T08:46:54.107Z,79.52
2022-12-22T08:49:22.736Z,79.06
2022-12-22T08:51:52.322Z,79.50
2022-12-22T08:54:21.299Z,78.71
2022-12-22T08:56:50.130Z,79.27
2022-12-22T08:59:18.282Z,79.97
2022-12-22T09:01:51.400Z,79.40
2022-12-22T09:04:31.786Z,79.12
2022-12-22T09:07:00.558Z,79.35
2022-12-22T09:09:28.923Z,79.17
2022-12-22T09:12:00.268Z,78.94
2022-12-22T09:14:32.904Z,78.58
2022-12-22T09:17:05.635Z,78.68
2022-12-22T09:19:38.255Z,77.94
2022-12-22T09:22:06.720Z,77.68
2022-12-22T09:24:34.888Z,77.23
2022-12-22T09:27:03.590Z,77.89
2022-12-22T09:29:32.253Z,77.06
2022-12-22T09:32:14.361Z,76.21
2022-12-22T09:34:44.143Z,77.52
2022-12-22T09:37:22.358Z,77.73
2022-12-22T09:39:50.704Z,79.32
2022-12-22T09:42:21.585Z,80.76
2022-12-22T09:44:52.809Z,81.13
2022-12-22T09:47:28.257Z,81.26
2022-12-22T09:50:00.020Z,81.62
2022-12-22T09:52:42.145Z,81.13
2022-12-22T09:55:17.379Z,81.49
2022-12-22T09:57:53.933Z,81.44
2022-12-22T10:00:28.627Z,81.46
2022-12-22T10:03:04.246Z,81.81
2022-12-22T10:05:47.700Z,82.46
2022-12-22T10:08:20.132Z,82.38
2022-12-22T10:10:55.509Z,82.70
2022-12-22T10:13:23.843Z,83.40
2022-12-22T10:15:53.456Z,83.42
2022-12-22T10:18:29.134Z,83.80
2022-12-22T10:21:12.852Z,84.59
2022-12-22T10:23:50.217Z,84.73
2022-12-22T10:26:28.541Z,85.47
2022-12-22T10:29:11.067Z,86.39
2022-12-22T10:31:56.222Z,86.27
2022-12-22T10:34:24.944Z,86.87
2022-12-22T10:37:02.883Z,87.44
2022-12-22T10:39:35.269Z,87.76
2022-12-22T10:42:09.436Z,88.40
2022-12-22T10:44:39.912Z,88.54
2022-12-22T10:47:17.579Z,88.92
2022-12-22T10:49:48.866Z,88.76
2022-12-22T10:52:29.116Z,88.93
2022-12-22T10:55:18.952Z,88.94
2022-12-22T10:57:47.301Z,88.78
2022-12-22T11:00:28.814Z,89.30
2022-12-22T11:02:59.115Z,89.08
2022-12-22T11:05:31.242Z,89.23
2022-12-22T11:08:11.617Z,89.40
2022-12-22T11:10:46.090Z,89.36
2022-12-22T11:13:28.770Z,89.02
2022-12-22T11:16:04.952Z,88.42
2022-12-22T11:18:47.624Z,88.28
2022-12-22T11:21:24.620Z,88.34
2022-12-22T11:24:12.382Z,88.54
2022-12-22T11:26:51.009Z,88.03
2022-12-22T11:29:38.096Z,87.41
2022-12-22T11:32:30.412Z,87.10
2022-12-22T11:35:09.318Z,87.33
2022-12-22T11:37:49.025Z,87.11
2022-12-22T11:40:29.958Z,86.24
2022-12-22T11:43:20.057Z,86.44
2022-12-22T11:46:10.941Z,86.29
2022-12-22T11:49:07.426Z,86.19
2022-12-22T11:52:03.795Z,86.79
2022-12-22T11:55:25.223Z,86.58
2022-12-22T11:58:09.374Z,86.95
2022-12-22T12:01:13.701Z,87.11
2022-12-22T12:04:06.430Z,86.54
2022-12-22T12:07:21.922Z,86.41
2022-12-22T12:10:09.165Z,86.71
2022-12-22T12:12:53.145Z,86.51
2022-12-22T12:15:40.748Z,86.06
2022-12-22T12:18:27.413Z,85.81
2022-12-22T12:21:21.589Z,86.00
2022-12-22T12:24:19.704Z,85.14
2022-12-22T12:26:56.007Z,85.60
2022-12-22T12:29:42.795Z,84.93
2022-12-22T12:32:28.499Z,84.61
2022-12-22T12:35:05.746Z,84.32
2022-12-22T12:37:44.130Z,84.68
2022-12-22T12:40:33.872Z,84.91
2022-12-22T12:43:28.539Z,84.87
2022-12-22T12:46:11.715Z,83.84
2022-12-22T12:48:42.650Z,83.05
2022-12-22T12:51:48.646Z,82.46
2022-12-22T12:54:39.590Z,81.29
2022-12-22T12:57:29.412Z,81.33
2022-12-22T13:00:01.965Z,81.00
2022-12-22T13:02:39.834Z,81.38
2022-12-22T13:05:36.638Z,81.71
2022-12-22T13:08:23.877Z,81.02
2022-12-22T13:12:01.302Z,80.21
2022-12-22T13:14:12.608Z,80.58
2022-12-22T13:16:41.287Z,80.66
2022-12-22T13:19:27.478Z,80.09
2022-12-22T13:21:57.851Z,80.57
2022-12-22T13:27:19.959Z,79.40
2022-12-22T13:29:49.165Z,79.03
2022-12-22T13:30:51.265Z,79.35
2022-12-22T13:32:22.895Z,78.49
2022-12-22T13:37:50.444Z,79.00
2022-12-22T13:40:21.578Z,79.03
2022-12-22T13:42:52.488Z,78.02
2022-12-22T13:45:37.217Z,78.50
2022-12-22T13:48:11.721Z,78.34
2022-12-22T13:50:44.925Z,79.05
2022-12-22T13:53:50.062Z,79.87
2022-12-22T13:56:15.615Z,79.59
2022-12-22T13:58:46.103Z,79.99
2022-12-22T14:01:18.718Z,79.61
2022-12-22T14:04:00.121Z,80.28
2022-12-22T14:06:30.945Z,80.76
2022-12-22T14:09:13.617Z,80.86
2022-12-22T14:11:50.690Z,80.53
2022-12-22T14:14:23.064Z,80.24
2022-12-22T14:16:53.852Z,81.41
2022-12-22T14:19:23.233Z,81.81
2022-12-22T14:22:03.965Z,81.66
2022-12-22T14:24:42.193Z,82.39
2022-12-22T14:27:19.727Z,80.62
2022-12-22T14:29:47.963Z,80.22
2022-12-22T14:32:35.666Z,80.30
2022-12-22T14:35:03.593Z,79.86
2022-12-22T14:37:33.124Z,78.72
2022-12-22T14:40:02.863Z,78.93
2022-12-22T14:42:32.291Z,78.43
2022-12-22T14:45:00.342Z,79.10
2022-12-22T14:47:28.544Z,78.37
2022-12-22T14:49:59.958Z,79.24
2022-12-22T14:52:39.572Z,78.63
2022-12-22T14:55:24.709Z,78.57
2022-12-22T14:57:55.382Z,78.70
2022-12-22T15:00:35.962Z,78.21
2022-12-22T15:03:32.342Z,78.90
2022-12-22T15:06:23.383Z,79.06
2022-12-22T15:08:53.591Z,79.23
2022-12-22T15:11:25.363Z,78.88
2022-12-22T15:13:53.777Z,79.59
2022-12-22T15:16:24.121Z,79.71
2022-12-22T15:18:53.851Z,80.55
2022-12-22T15:21:23.011Z,80.87
2022-12-22T15:23:51.154Z,81.29
2022-12-22T15:26:19.510Z,81.23
2022-12-22T15:28:48.733Z,81.71
2022-12-22T15:31:19.187Z,81.75
2022-12-22T15:33:48.346Z,81.41
2022-12-22T15:36:16.624Z,80.71
2022-12-22T15:38:44.532Z,80.36
2022-12-22T15:41:12.866Z,80.44
2022-12-22T15:43:58.431Z,80.67
2022-12-22T15:46:28.768Z,80.01
2022-12-22T15:48:57.056Z,80.14
2022-12-22T15:51:27.775Z,80.85
2022-12-22T15:53:56.965Z,80.97
2022-12-22T15:56:26.769Z,80.68
2022-12-22T15:58:54.976Z,80.63
2022-12-22T16:01:23.493Z,80.85
2022-12-22T16:03:53.407Z,81.03
2022-12-22T16:06:21.547Z,81.37
2022-12-22T16:08:53.006Z,81.55
2022-12-22T16:11:21.300Z,81.03
2022-12-22T16:13:53.357Z,81.25
2022-12-22T16:16:22.696Z,81.79
2022-12-22T16:18:51.066Z,82.10
2022-12-22T16:21:25.721Z,81.62
2022-12-22T16:23:55.787Z,82.10
2022-12-22T16:26:23.848Z,82.25
2022-12-22T16:28:51.762Z,82.60
2022-12-22T16:31:22.137Z,82.37
2022-12-22T16:33:51.042Z,82.48
2022-12-22T16:36:21.495Z,82.76
2022-12-22T16:38:49.656Z,82.82
2022-12-22T16:41:21.947Z,82.33
2022-12-22T16:46:39.319Z,81.99
2022-12-22T16:49:09.209Z,82.13
2022-12-22T16:51:46.650Z,82.45
2022-12-22T16:54:22.986Z,82.35
2022-12-22T16:56:54.469Z,82.27
2022-12-22T16:59:22.763Z,82.29
2022-12-22T17:01:54.253Z,80.92
2022-12-22T17:04:26.479Z,81.57
2022-12-22T17:06:58.819Z,81.68
2022-12-22T17:09:31.054Z,80.93
2022-12-22T17:12:01.511Z,80.97
2022-12-22T17:14:33.013Z,81.45
2022-12-22T17:17:01.887Z,81.54
2022-12-22T17:19:30.353Z,81.63
2022-12-22T17:22:02.721Z,81.88
2022-12-22T17:24:30.628Z,81.91
2022-12-22T17:27:02.810Z,81.54
2022-12-22T17:29:30.996Z,81.71
2022-12-22T17:31:59.658Z,81.88
2022-12-22T17:34:29.421Z,82.13
2022-12-22T17:37:01.555Z,82.47
2022-12-22T17:39:33.123Z,82.52
2022-12-22T17:42:00.978Z,82.17
2022-12-22T17:44:28.902Z,82.14
2022-12-22T17:46:57.712Z,82.28
2022-12-22T17:49:25.675Z,82.56
2022-12-22T17:51:53.742Z,82.62
2022-12-22T17:54:24.735Z,82.72
2022-12-22T17:56:58.597Z,82.92
2022-12-22T17:59:26.852Z,82.91
2022-12-22T18:01:55.110Z,82.78
2022-12-22T18:04:23.508Z,83.01
2022-12-22T18:06:52.254Z,82.34
2022-12-22T18:09:24.929Z,82.70
2022-12-22T18:11:55.401Z,82.29
2022-12-22T18:14:23.829Z,82.25
2022-12-22T18:16:51.894Z,82.55
2022-12-22T18:19:20.870Z,82.28
2022-12-22T18:21:49.303Z,82.67
2022-12-22T18:24:18.287Z,82.83
2022-12-22T18:26:47.442Z,83.12
2022-12-22T18:29:17.400Z,82.94
2022-12-22T18:31:46.323Z,83.32
2022-12-22T18:34:14.439Z,82.84
2022-12-22T18:36:45.480Z,83.50
2022-12-22T18:39:19.363Z,83.37
2022-12-22T18:41:47.427Z,83.76
2022-12-22T18:44:19.462Z,83.26
2022-12-22T18:46:48.731Z,83.61
2022-12-22T18:49:17.440Z,83.56
2022-12-22T18:51:46.510Z,83.72
2022-12-22T18:54:23.878Z,83.98
2022-12-22T18:56:52.225Z,84.30
2022-12-22T18:59:25.805Z,84.25
2022-12-22T19:01:54.034Z,83.66
2022-12-22T19:04:22.282Z,83.44
2022-12-22T19:06:50.145Z,83.54
2022-12-22T19:09:20.171Z,82.34
2022-12-22T19:11:48.195Z,82.17
2022-12-22T19:14:19.323Z,82.04
2022-12-22T19:16:49.910Z,81.63
2022-12-22T19:19:19.443Z,81.63
2022-12-22T19:21:48.718Z,80.91
2022-12-22T19:24:17.102Z,80.91
2022-12-22T19:26:45.088Z,80.81
2022-12-22T19:29:18.900Z,81.17
2022-12-22T19:31:49.666Z,80.79
2022-12-22T19:34:21.227Z,81.27
2022-12-22T19:36:49.679Z,81.37
2022-12-22T19:39:17.832Z,81.85
2022-12-22T19:41:48.483Z,82.42
2022-12-22T19:44:23.680Z,82.64
2022-12-22T19:46:55.568Z,82.99
2022-12-22T19:49:28.299Z,83.54
2022-12-22T19:51:57.062Z,83.11
2022-12-22T19:54:25.242Z,84.35
2022-12-22T19:56:56.496Z,84.51
2022-12-22T19:59:33.996Z,84.57
2022-12-22T20:02:25.402Z,85.05
2022-12-22T20:04:55.114Z,85.41
2022-12-22T20:07:25.870Z,85.22
2022-12-22T20:09:54.434Z,85.41
2022-12-22T20:12:27.718Z,86.16
2022-12-22T20:14:55.842Z,86.68
2022-12-22T20:17:25.920Z,86.28
2022-12-22T20:19:54.017Z,86.64
2022-12-22T20:22:24.644Z,87.19
2022-12-22T20:24:54.650Z,87.96
2022-12-22T20:27:24.919Z,87.77
2022-12-22T20:29:53.099Z,88.29
2022-12-22T20:32:27.684Z,88.60
2022-12-22T20:34:59.868Z,88.14
2022-12-22T20:37:31.593Z,88.37
2022-12-22T20:40:01.250Z,89.21
2022-12-22T20:42:29.160Z,88.91
2022-12-22T20:45:03.006Z,88.80
2022-12-22T20:47:33.226Z,89.03
2022-12-22T20:50:04.135Z,89.56
2022-12-22T20:52:31.978Z,89.59
2022-12-22T20:55:00.155Z,89.54
2022-12-22T20:57:29.149Z,89.53
2022-12-22T20:59:57.098Z,89.80
2022-12-22T21:02:28.197Z,89.80
2022-12-22T21:04:57.254Z,89.93
2022-12-22T21:07:26.530Z,90.37
2022-12-22T21:09:55.691Z,90.66
2022-12-22T21:12:24.184Z,90.40
2022-12-22T21:14:52.318Z,90.76
2022-12-22T21:17:22.398Z,90.32
2022-12-22T21:19:50.743Z,90.13
2022-12-22T21:22:18.875Z,89.81
2022-12-22T21:24:51.626Z,89.83
2022-12-22T21:27:22.227Z,89.72
2022-12-22T21:29:52.635Z,89.62
2022-12-22T21:32:20.758Z,88.64
2022-12-22T21:34:50.536Z,88.12
2022-12-22T21:37:22.054Z,88.01
2022-12-22T21:39:51.768Z,88.62
2022-12-22T21:42:20.522Z,88.85
2022-12-22T21:44:48.760Z,89.18
2022-12-22T21:47:20.619Z,88.74
2022-12-22T21:49:48.961Z,88.31
2022-12-22T21:52:16.968Z,88.83
2022-12-22T21:54:44.853Z,88.78
2022-12-22T21:57:17.213Z,89.46
2022-12-22T21:59:45.295Z,89.39
2022-12-22T22:02:17.183Z,89.50
2022-12-22T22:04:52.046Z,89.93
2022-12-22T22:07:22.744Z,90.59
2022-12-22T22:09:50.821Z,91.01
2022-12-22T22:12:37.524Z,91.52
2022-12-22T22:15:06.030Z,92.09
2022-12-22T22:17:34.258Z,92.41
2022-12-22T22:20:02.581Z,92.57
2022-12-22T22:22:30.555Z,93.28
2022-12-22T22:24:59.760Z,93.38
2022-12-22T22:27:29.058Z,92.52
2022-12-22T22:29:57.155Z,92.34
2022-12-22T22:32:25.399Z,92.75
2022-12-22T22:34:53.885Z,92.97
2022-12-22T22:37:21.842Z,93.21
2022-12-22T22:39:51.566Z,93.73
2022-12-22T22:42:19.831Z,94.14
2022-12-22T22:44:49.261Z,94.47
2022-12-22T22:47:17.240Z,94.72
2022-12-22T22:49:45.309Z,95.02
2022-12-22T22:52:13.155Z,95.35
2022-12-22T22:54:40.944Z,95.52
2022-12-22T22:57:09.682Z,95.86
2022-12-22T22:59:37.990Z,96.12
2022-12-22T23:02:07.873Z,95.82
2022-12-22T23:04:35.872Z,95.21
2022-12-22T23:07:04.118Z,95.30
2022-12-22T23:09:31.994Z,95.05
2022-12-22T23:12:00.306Z,94.74
2022-12-22T23:14:28.387Z,94.86
2022-12-22T23:16:56.537Z,94.34
2022-12-22T23:19:27.128Z,94.89
2022-12-22T23:21:54.990Z,94.69
2022-12-22T23:24:22.909Z,94.51
2022-12-22T23:26:50.794Z,94.77
2022-12-22T23:29:18.679Z,94.06
2022-12-22T23:31:46.759Z,94.22
2022-12-22T23:34:15.314Z,93.54
2022-12-22T23:36:44.924Z,93.58
2022-12-22T23:39:12.944Z,93.07
2022-12-22T23:41:42.196Z,93.18
2022-12-22T23:44:10.705Z,93.75
2022-12-22T23:46:38.626Z,93.61
2022-12-22T23:49:07.226Z,93.64
2022-12-22T23:51:35.568Z,93.30
2022-12-22T23:54:05.510Z,93.45
2022-12-22T23:56:34.444Z,92.81
2022-12-22T23:59:02.696Z,92.24
